CheckWX is a tool to help pilots better visualize weather data.  It is not intended as a substitute for an official pre-flight weather briefing.

03:47:27 UTC

EKCH METAR
Copenhagen Kastrup Airport
Copenhagen, Denmark
Current

27 mins ago

EKCH 260320Z AUTO 24013KT 9999 BKN032/// 10/08 Q1009 NOSIG
Observed
May-26 @ 03:20 UTC
Wind
  • 240° at 13 KTS
Visibility
10,000+ meters
Flight Rules
VFR
Cloud Levels
  • Broken at 3,200' AGL
Temperature
10°C / 50°F
Dewpoint
C / 46°F
Humidity
88%
Altimeter
29.79" Hg
Pressure
1008.92 hPa
Previous

57 mins ago

EKCH 260250Z AUTO 25013KT 9999 BKN041/// BKN100/// 10/07 Q1009 NOSIG
Observed
May-26 @ 02:50 UTC
Wind
  • 250° at 13 KTS
Visibility
10,000+ meters
Flight Rules
VFR
Cloud Levels
  • Broken at 4,100' AGL
  • Broken at 10,000' AGL
Temperature
10°C / 50°F
Dewpoint
C / 45°F
Humidity
82%
Altimeter
29.79" Hg
Pressure
1008.92 hPa
Previous

1 hour ago

EKCH 260220Z AUTO 26012KT 9999 FEW022/// BKN042/// 10/07 Q1009 NOSIG
Observed
May-26 @ 02:20 UTC
Wind
  • 260° at 12 KTS
Visibility
10,000+ meters
Flight Rules
VFR
Cloud Levels
  • Few at 2,200' AGL
  • Broken at 4,200' AGL
Temperature
10°C / 50°F
Dewpoint
C / 45°F
Humidity
82%
Altimeter
29.79" Hg
Pressure
1008.92 hPa